Time;durP1;ratioP1;P1;durP2;ratioP2;P2;SDS_P1;SDS_P2;PMS_P1;PMS_P2;Temp;Humidity;BMP_temperature;BMP_pressure;BME280_temperature;BME280_humidity;BME280_pressure;Samples;Min_cycle;Max_cycle;Signal;HPM_P1;HPM_P2
2022/01/10 00:00:19;;;;;;;28.67;25.73;;;;;;;-2.56;100.00;101125.63;5244871;28;20029;-65
2022/01/10 00:02:54;;;;;;;28.38;25.27;;;;;;;-2.37;100.00;101125.34;5244861;28;20098;-65
2022/01/10 00:05:25;;;;;;;30.23;26.60;;;;;;;-2.14;100.00;101118.38;5244622;28;20028;-64
2022/01/10 00:07:56;;;;;;;26.63;24.15;;;;;;;-2.15;100.00;101124.66;5244559;28;20029;-65
2022/01/10 00:10:26;;;;;;;28.67;26.23;;;;;;;-2.20;100.00;101140.19;5244764;28;20024;-68
2022/01/10 00:12:57;;;;;;;28.83;23.85;;;;;;;-2.28;100.00;101134.91;5244560;28;20050;-66
2022/01/10 00:15:27;;;;;;;28.48;26.05;;;;;;;-2.28;100.00;101136.72;5244520;28;20472;-66
2022/01/10 00:17:58;;;;;;;28.30;25.73;;;;;;;-2.36;100.00;101132.28;5246759;28;20027;-65
2022/01/10 00:20:28;;;;;;;31.00;28.15;;;;;;;-2.38;100.00;101147.47;5248282;28;20020;-65
2022/01/10 00:22:59;;;;;;;27.40;24.90;;;;;;;-2.44;100.00;101161.34;5248459;28;20090;-66
2022/01/10 00:25:30;;;;;;;29.83;26.40;;;;;;;-2.60;100.00;101143.66;5248110;28;20029;-64
2022/01/10 00:28:01;;;;;;;28.50;25.63;;;;;;;-2.58;100.00;101156.69;5248563;28;20020;-64
2022/01/10 00:30:32;;;;;;;27.55;25.05;;;;;;;-2.62;100.00;101158.88;5248430;28;20025;-65
2022/01/10 00:33:02;;;;;;;27.55;25.23;;;;;;;-2.50;100.00;101172.56;5248467;28;20107;-64
2022/01/10 00:35:32;;;;;;;28.40;25.48;;;;;;;-2.42;100.00;101167.31;5247999;28;20033;-65
2022/01/10 00:38:03;;;;;;;34.85;26.63;;;;;;;-2.40;100.00;101173.25;5248313;28;20021;-65
2022/01/10 00:40:33;;;;;;;25.85;23.50;;;;;;;-2.48;100.00;101171.44;5248046;28;20042;-65
2022/01/10 00:43:04;;;;;;;26.42;23.77;;;;;;;-2.50;100.00;101178.69;5248268;28;20037;-65
2022/01/10 00:45:34;;;;;;;24.80;22.75;;;;;;;-2.59;100.00;101173.53;5248050;28;20032;-65
2022/01/10 00:48:05;;;;;;;26.58;23.75;;;;;;;-2.62;100.00;101179.19;5248406;28;20111;-65
2022/01/10 00:50:36;;;;;;;29.15;24.02;;;;;;;-2.68;100.00;101178.00;5248095;28;20388;-65
2022/01/10 00:53:07;;;;;;;36.03;25.00;;;;;;;-2.64;100.00;101189.09;5248165;28;20044;-65
2022/01/10 00:55:37;;;;;;;30.92;27.58;;;;;;;-2.64;100.00;101191.75;5247630;28;20377;-65
2022/01/10 00:58:08;;;;;;;25.60;23.15;;;;;;;-2.67;100.00;101208.75;5247894;28;20503;-65
2022/01/10 01:00:38;;;;;;;24.80;23.05;;;;;;;-2.77;100.00;101198.31;5247818;28;20500;-65
2022/01/10 01:03:09;;;;;;;28.85;25.90;;;;;;;-2.81;100.00;101204.06;5247847;28;20435;-65
2022/01/10 01:05:42;;;;;;;26.65;24.08;;;;;;;-2.89;100.00;101194.31;5247569;28;20472;-65
2022/01/10 01:08:13;;;;;;;24.92;22.88;;;;;;;-2.80;100.00;101230.34;5247763;28;20158;-67
2022/01/10 01:13:35;;;;;;;31.50;26.77;;;;;;;-2.83;100.00;101229.81;5249224;28;20028;-64
2022/01/10 01:24:09;;;;;;;27.58;25.33;;;;;;;-2.68;100.00;101228.25;5248769;28;20028;-64
2022/01/10 01:26:46;;;;;;;31.92;24.92;;;;;;;-2.60;100.00;101235.38;5247673;28;20025;-65
2022/01/10 01:29:19;;;;;;;33.10;26.63;;;;;;;-2.55;100.00;101249.75;5246537;28;20077;-66
2022/01/10 01:31:50;;;;;;;28.85;26.35;;;;;;;-2.50;100.00;101244.81;5248974;28;20028;-65
2022/01/10 01:34:24;;;;;;;29.25;26.30;;;;;;;-2.46;100.00;101250.59;5246902;28;20017;-65
2022/01/10 01:36:56;;;;;;;27.90;25.00;;;;;;;-2.47;100.00;101248.94;5247093;28;20400;-65
2022/01/10 01:39:29;;;;;;;32.03;26.98;;;;;;;-2.49;100.00;101258.84;5247260;28;20036;-65
2022/01/10 01:42:05;;;;;;;32.05;28.17;;;;;;;-2.52;100.00;101254.72;5247252;28;20454;-65
2022/01/10 01:44:35;;;;;;;29.15;25.77;;;;;;;-2.52;100.00;101243.31;5246776;28;20020;-65
2022/01/10 01:47:06;;;;;;;31.85;29.10;;;;;;;-2.47;100.00;101256.88;5247158;28;20526;-66
2022/01/10 01:49:36;;;;;;;29.73;27.10;;;;;;;-2.46;100.00;101258.53;5246777;28;20016;-63
2022/01/10 01:52:07;;;;;;;26.90;24.05;;;;;;;-2.41;100.00;101274.75;5246767;28;20028;-64
2022/01/10 01:54:37;;;;;;;30.20;27.08;;;;;;;-2.38;100.00;101279.72;5246405;28;20060;-65
2022/01/10 01:57:08;;;;;;;33.60;27.50;;;;;;;-2.56;100.00;101263.94;5247174;28;20024;-65
2022/01/10 01:59:38;;;;;;;32.25;24.58;;;;;;;-2.45;100.00;101294.56;5246594;28;20113;-65
2022/01/10 02:02:09;;;;;;;25.77;23.20;;;;;;;-2.72;100.00;101279.75;5246464;28;20404;-65
2022/01/10 02:04:39;;;;;;;27.02;24.55;;;;;;;-2.76;100.00;101281.06;5246894;28;20496;-65
2022/01/10 02:07:10;;;;;;;23.98;21.90;;;;;;;-2.65;100.00;101306.41;5246642;28;20024;-65
2022/01/10 02:09:40;;;;;;;27.08;24.05;;;;;;;-2.70;100.00;101324.53;5246503;28;20473;-65
2022/01/10 02:12:11;;;;;;;27.35;24.98;;;;;;;-2.81;100.00;101326.47;5246409;28;20396;-66
2022/01/10 02:14:43;;;;;;;26.35;23.58;;;;;;;-2.88;100.00;101333.34;5245957;28;20063;-65
2022/01/10 02:17:16;;;;;;;40.40;23.45;;;;;;;-2.94;100.00;101331.38;5246401;28;20480;-65
2022/01/10 02:19:57;;;;;;;31.17;24.90;;;;;;;-2.96;100.00;101330.69;5246064;28;20032;-65
2022/01/10 02:22:28;;;;;;;33.25;25.00;;;;;;;-3.00;100.00;101347.84;5246242;28;20104;-65
2022/01/10 02:24:58;;;;;;;24.10;21.80;;;;;;;-3.04;100.00;101343.84;5245677;28;20029;-64
2022/01/10 02:27:29;;;;;;;23.75;21.90;;;;;;;-3.49;100.00;101270.94;5246143;28;20070;-68
2022/01/10 02:29:59;;;;;;;25.13;22.67;;;;;;;-3.14;100.00;101341.28;5246255;28;20019;-65
2022/01/10 02:32:34;;;;;;;27.48;24.88;;;;;;;-3.14;100.00;101354.50;5246064;28;20032;-66
2022/01/10 02:35:04;;;;;;;37.40;25.60;;;;;;;-3.13;100.00;101360.63;5245834;28;20024;-66
2022/01/10 02:37:36;;;;;;;26.23;23.60;;;;;;;-3.13;100.00;101371.19;5245673;28;20027;-64
2022/01/10 02:40:09;;;;;;;25.98;23.40;;;;;;;-3.19;100.00;101363.91;5245486;28;20086;-65
2022/01/10 02:42:39;;;;;;;26.10;23.75;;;;;;;-3.14;100.00;101365.06;5245990;28;20032;-65
2022/01/10 02:45:10;;;;;;;29.10;26.50;;;;;;;-3.05;100.00;101373.88;5245472;28;20024;-64
2022/01/10 02:47:40;;;;;;;28.17;25.80;;;;;;;-3.13;100.00;101360.63;5245830;28;20024;-65
2022/01/10 02:50:11;;;;;;;24.40;21.85;;;;;;;-3.15;100.00;101371.34;5246883;28;20031;-65
2022/01/10 02:52:42;;;;;;;27.45;24.70;;;;;;;-3.23;100.00;101375.75;5245672;28;20476;-65
2022/01/10 02:55:14;;;;;;;25.92;23.23;;;;;;;-3.15;100.00;101394.28;5245380;28;20119;-65
2022/01/10 02:57:45;;;;;;;28.00;25.60;;;;;;;-3.22;100.00;101386.16;5245650;28;20059;-66
2022/01/10 03:00:19;;;;;;;28.17;24.23;;;;;;;-3.17;100.00;101393.59;5245432;28;20044;-65
2022/01/10 03:02:51;;;;;;;25.95;23.17;;;;;;;-3.26;100.00;101405.09;5245467;28;20036;-65
2022/01/10 03:05:24;;;;;;;23.45;21.58;;;;;;;-3.31;100.00;101408.19;5245244;28;20024;-66
2022/01/10 03:07:56;;;;;;;28.92;25.92;;;;;;;-3.31;100.00;101420.56;5245356;28;20028;-65
2022/01/10 03:10:26;;;;;;;25.63;23.05;;;;;;;-3.31;100.00;101415.28;5245326;28;20387;-66
2022/01/10 03:12:59;;;;;;;24.95;22.60;;;;;;;-3.26;100.00;101426.22;5245376;28;20020;-63
2022/01/10 03:15:30;;;;;;;33.70;23.52;;;;;;;-3.24;100.00;101417.19;5244980;28;20111;-65
2022/01/10 03:18:01;;;;;;;28.60;26.00;;;;;;;-3.32;100.00;101403.91;5245473;28;20032;-66
2022/01/10 03:20:31;;;;;;;24.98;22.70;;;;;;;-3.13;100.00;101430.13;5246398;28;20035;-65
2022/01/10 03:23:02;;;;;;;28.38;25.38;;;;;;;-3.16;100.00;101416.38;5245434;28;20032;-64
2022/01/10 03:25:32;;;;;;;25.75;22.65;;;;;;;-3.10;100.00;101434.28;5244662;28;20132;-64
2022/01/10 03:28:03;;;;;;;24.85;22.65;;;;;;;-3.10;100.00;101444.84;5245249;28;20086;-66
2022/01/10 03:30:34;;;;;;;27.92;25.50;;;;;;;-3.10;100.00;101439.56;5245019;28;20029;-65
2022/01/10 03:33:05;;;;;;;33.30;26.63;;;;;;;-3.20;100.00;101430.91;5245265;28;20036;-65
2022/01/10 03:35:36;;;;;;;28.27;25.02;;;;;;;-3.06;100.00;101447.03;5244965;28;20111;-67
2022/01/10 03:38:06;;;;;;;25.95;23.20;;;;;;;-3.03;100.00;101447.72;5244907;28;20032;-65
2022/01/10 03:40:37;;;;;;;24.92;22.98;;;;;;;-3.01;100.00;101458.94;5244875;28;20021;-65
2022/01/10 03:43:07;;;;;;;25.88;23.67;;;;;;;-2.91;100.00;101470.28;5244905;28;20032;-66
2022/01/10 03:45:38;;;;;;;29.30;26.23;;;;;;;-2.73;100.00;101461.31;5244567;28;20085;-66
2022/01/10 03:48:08;;;;;;;28.02;25.27;;;;;;;-2.59;100.00;101482.88;5244742;28;20017;-65
2022/01/10 03:50:39;;;;;;;27.05;24.65;;;;;;;-2.44;100.00;101478.69;5245053;28;20534;-65
2022/01/10 03:53:09;;;;;;;28.73;24.45;;;;;;;-2.39;100.00;101476.41;5247027;28;20437;-65
2022/01/10 03:55:40;;;;;;;29.33;26.48;;;;;;;-2.28;100.00;101481.41;5248250;28;20032;-66
2022/01/10 03:58:10;;;;;;;30.05;27.40;;;;;;;-2.25;100.00;101483.75;5248550;28;20101;-65
2022/01/10 04:00:41;;;;;;;29.27;26.33;;;;;;;-2.08;100.00;101489.97;5248208;28;20021;-66
2022/01/10 04:03:11;;;;;;;27.00;24.90;;;;;;;-2.08;100.00;101492.63;5248702;28;20531;-66
2022/01/10 04:05:42;;;;;;;34.10;31.10;;;;;;;-1.95;100.00;101502.75;5248095;28;20028;-65
2022/01/10 04:08:12;;;;;;;30.98;27.83;;;;;;;-1.82;100.00;101513.72;5248319;28;20472;-65
2022/01/10 04:10:43;;;;;;;30.20;27.05;;;;;;;-1.74;100.00;101506.66;5248102;28;20028;-66
2022/01/10 04:13:13;;;;;;;37.17;27.45;;;;;;;-1.61;100.00;101518.59;5248180;28;20027;-65
2022/01/10 04:15:44;;;;;;;31.23;28.40;;;;;;;-1.56;100.00;101516.31;5248160;28;20024;-66
2022/01/10 04:18:15;;;;;;;30.00;27.27;;;;;;;-1.49;100.00;101515.50;5249351;28;20260;-65
2022/01/10 04:20:46;;;;;;;35.72;29.63;;;;;;;-1.47;100.00;101518.00;5248026;28;20032;-66
2022/01/10 04:23:17;;;;;;;29.67;26.55;;;;;;;-1.38;100.00;101528.44;5249160;28;20032;-66
2022/01/10 04:25:48;;;;;;;31.00;27.88;;;;;;;-1.36;100.00;101525.63;5247785;28;20472;-66
2022/01/10 04:28:19;;;;;;;33.70;30.65;;;;;;;-1.28;100.00;101535.41;5248207;28;20032;-66
2022/01/10 04:30:49;;;;;;;33.22;30.20;;;;;;;-1.26;100.00;101534.28;5248357;28;20024;-66
2022/01/10 04:33:20;;;;;;;32.33;29.48;;;;;;;-1.21;100.00;101547.03;5247593;28;20024;-65
2022/01/10 04:35:51;;;;;;;31.25;28.35;;;;;;;-1.32;100.00;101526.13;5247622;28;20039;-66
2022/01/10 04:38:21;;;;;;;40.28;32.45;;;;;;;-1.17;100.00;101553.69;5247738;28;20383;-66
2022/01/10 04:40:53;;;;;;;33.90;30.40;;;;;;;-1.20;100.00;101543.41;5247499;28;20469;-65
2022/01/10 04:43:23;;;;;;;32.53;29.38;;;;;;;-1.12;100.00;101567.25;5247465;28;20028;-66
2022/01/10 04:45:54;;;;;;;36.85;30.77;;;;;;;-1.10;100.00;101579.34;5247566;28;20032;-65
2022/01/10 04:48:25;;;;;;;35.17;31.13;;;;;;;-1.10;100.00;101576.69;5247344;28;20024;-66
2022/01/10 04:53:35;;;;;;;32.58;29.15;;;;;;;-1.06;100.00;101586.00;5248778;28;20025;-65
2022/01/10 04:56:05;;;;;;;34.45;31.42;;;;;;;-1.04;100.00;101596.44;5248769;28;20021;-66
2022/01/10 04:58:37;;;;;;;31.00;28.27;;;;;;;-1.04;100.00;101596.44;5247581;28;20024;-66
2022/01/10 05:01:08;;;;;;;34.08;31.05;;;;;;;-1.02;100.00;101605.06;5247134;28;20029;-66
2022/01/10 05:03:39;;;;;;;33.33;29.90;;;;;;;-1.00;100.00;101608.38;5246882;28;20025;-65
2022/01/10 05:06:10;;;;;;;41.47;30.45;;;;;;;-0.98;100.00;101619.66;5247254;28;20039;-66
2022/01/10 05:08:40;;;;;;;33.95;30.75;;;;;;;-0.97;100.00;101618.66;5247240;28;20021;-66
2022/01/10 05:11:11;;;;;;;32.25;27.45;;;;;;;-0.95;100.00;101629.94;5247330;28;20028;-66
2022/01/10 05:13:41;;;;;;;33.00;29.73;;;;;;;-1.00;100.00;101624.28;5247309;28;20484;-66
2022/01/10 05:16:13;;;;;;;34.45;28.95;;;;;;;-0.91;100.00;101641.03;5248300;28;20023;-66
2022/01/10 05:18:44;;;;;;;34.50;30.90;;;;;;;-0.87;100.00;101645.03;5248439;28;20028;-66
2022/01/10 05:21:16;;;;;;;36.55;32.22;;;;;;;-0.83;100.00;101647.16;5248208;28;20029;-64
2022/01/10 05:23:47;;;;;;;29.88;25.67;;;;;;;-0.81;100.00;101650.50;5247300;28;20033;-66
2022/01/10 05:26:17;;;;;;;33.00;30.10;;;;;;;-0.86;100.00;101650.16;5247536;28;20377;-67
2022/01/10 05:28:48;;;;;;;33.30;29.77;;;;;;;-0.97;100.00;101645.16;5247640;28;20070;-66
2022/01/10 05:31:18;;;;;;;30.63;27.83;;;;;;;-0.82;100.00;101677.16;5247529;28;20020;-65
2022/01/10 05:33:49;;;;;;;32.13;27.55;;;;;;;-0.82;100.00;101679.81;5247191;28;20397;-66
2022/01/10 05:36:20;;;;;;;35.47;31.40;;;;;;;-0.81;100.00;101682.31;5247729;28;20024;-67
2022/01/10 05:38:50;;;;;;;36.53;30.95;;;;;;;-0.79;100.00;101677.69;5247423;28;20024;-66
2022/01/10 05:41:22;;;;;;;34.70;31.05;;;;;;;-0.93;100.00;101657.09;5247574;28;20036;-67
2022/01/10 05:43:55;;;;;;;29.75;26.98;;;;;;;-0.74;100.00;101688.63;5247175;28;20016;-67
2022/01/10 05:46:26;;;;;;;33.90;30.38;;;;;;;-0.77;100.00;101691.63;5247703;28;20088;-66
2022/01/10 05:49:01;;;;;;;36.25;32.30;;;;;;;-0.74;100.00;101704.56;5247544;28;20488;-66
2022/01/10 05:51:34;;;;;;;33.25;29.58;;;;;;;-0.72;100.00;101707.88;5247919;28;20639;-66
2022/01/10 05:54:06;;;;;;;32.10;28.35;;;;;;;-0.66;100.00;101721.50;5247285;28;20111;-66
2022/01/10 05:56:37;;;;;;;31.80;28.83;;;;;;;-0.66;100.00;101727.63;5247264;28;20476;-67
2022/01/10 05:59:07;;;;;;;34.63;31.38;;;;;;;-0.62;100.00;101720.19;5247331;28;20153;-66
2022/01/10 06:01:38;;;;;;;36.60;32.30;;;;;;;-0.72;100.00;101710.53;5247266;28;20031;-66
2022/01/10 06:04:09;;;;;;;36.78;33.50;;;;;;;-0.63;100.00;101729.97;5247133;28;20024;-64
2022/01/10 06:06:39;;;;;;;30.95;27.77;;;;;;;-0.70;100.00;101727.09;5247439;28;20400;-66
2022/01/10 06:09:10;;;;;;;34.63;31.23;;;;;;;-0.71;100.00;101717.50;5247717;28;20400;-66
2022/01/10 06:11:40;;;;;;;33.72;29.05;;;;;;;-0.75;100.00;101713.50;5248708;28;20031;-66
2022/01/10 06:14:11;;;;;;;31.80;28.90;;;;;;;-0.63;100.00;101732.59;5230815;28;20032;-64
2022/01/10 06:16:42;;;;;;;41.90;34.90;;;;;;;-0.64;100.00;101738.91;5225503;28;20066;-65
2022/01/10 06:19:12;;;;;;;34.33;30.75;;;;;;;-0.62;100.00;101749.34;5225569;28;20497;-67
2022/01/10 06:21:43;;;;;;;38.95;32.88;;;;;;;-0.70;100.00;101743.03;5226407;28;20031;-66
2022/01/10 06:24:13;;;;;;;39.42;31.40;;;;;;;-0.63;100.00;101747.69;5225374;28;20025;-64
2022/01/10 06:26:44;;;;;;;29.95;27.35;;;;;;;-0.99;100.00;101696.69;5225783;28;20026;-66
2022/01/10 06:29:14;;;;;;;32.38;29.20;;;;;;;-0.65;100.00;101747.84;5225946;28;20032;-66
2022/01/10 06:31:45;;;;;;;37.40;33.97;;;;;;;-0.73;100.00;101738.03;5225586;28;20032;-67
2022/01/10 06:34:15;;;;;;;34.70;31.83;;;;;;;-0.72;100.00;101755.63;5225540;28;20509;-66
2022/01/10 06:36:46;;;;;;;37.50;32.60;;;;;;;-0.77;100.00;101765.88;5225269;28;20028;-66
2022/01/10 06:39:16;;;;;;;34.97;31.48;;;;;;;-0.84;100.00;101767.47;5223643;28;20041;-66
2022/01/10 06:41:47;;;;;;;35.05;31.63;;;;;;;-0.88;100.00;101766.16;5225287;28;20499;-65
2022/01/10 06:44:18;;;;;;;36.17;32.13;;;;;;;-0.81;100.00;101782.25;5224811;28;20401;-66
2022/01/10 06:46:48;;;;;;;32.95;30.00;;;;;;;-0.84;100.00;101777.25;5225486;28;20017;-67
2022/01/10 06:49:19;;;;;;;29.63;27.13;;;;;;;-1.20;100.00;101731.53;5225739;28;20033;-66
2022/01/10 06:51:49;;;;;;;33.50;30.13;;;;;;;-0.90;100.00;101788.53;5225545;28;20021;-66
2022/01/10 06:54:20;;;;;;;32.15;29.20;;;;;;;-0.95;100.00;101794.28;5225336;28;20035;-66
2022/01/10 06:56:50;;;;;;;35.38;32.03;;;;;;;-1.06;100.00;101799.84;5225354;28;20564;-66
2022/01/10 06:59:21;;;;;;;33.72;30.35;;;;;;;-1.10;100.00;101809.94;5225272;28;20029;-66
2022/01/10 07:01:53;;;;;;;30.75;28.20;;;;;;;-1.15;100.00;101817.53;5225136;28;20023;-66
2022/01/10 07:04:23;;;;;;;30.00;26.85;;;;;;;-1.14;100.00;101818.34;5225129;28;20374;-67
2022/01/10 07:06:54;;;;;;;33.30;29.77;;;;;;;-1.13;100.00;101838.56;5225669;28;20016;-67
2022/01/10 07:09:25;;;;;;;33.58;28.85;;;;;;;-1.14;100.00;101839.56;5225416;28;20024;-66
2022/01/10 07:11:55;;;;;;;31.08;28.20;;;;;;;-1.23;100.00;101833.38;5224578;28;20112;-66
2022/01/10 07:14:28;;;;;;;29.63;26.50;;;;;;;-1.47;100.00;101812.84;5223841;28;20025;-65
2022/01/10 07:16:59;;;;;;;25.83;23.95;;;;;;;-1.27;100.00;101855.03;5224018;28;20055;-63
2022/01/10 07:19:29;;;;;;;29.30;26.25;;;;;;;-1.34;100.00;101864.59;5223552;28;20060;-65
2022/01/10 07:22:00;;;;;;;29.52;27.23;;;;;;;-1.45;100.00;101868.34;5223687;28;20541;-65
2022/01/10 07:24:31;;;;;;;28.23;25.70;;;;;;;-1.56;100.00;101861.44;5223385;28;20078;-65
2022/01/10 07:27:01;;;;;;;28.52;25.92;;;;;;;-1.50;100.00;101891.78;5222876;28;20021;-64
2022/01/10 07:29:32;;;;;;;27.90;25.48;;;;;;;-1.54;100.00;101901.03;5223726;28;20052;-65
2022/01/10 07:32:03;;;;;;;31.30;26.20;;;;;;;-1.57;100.00;101906.63;5223531;28;20029;-65
2022/01/10 07:34:33;;;;;;;29.48;26.25;;;;;;;-1.49;100.00;101915.47;5223625;28;20309;-65
2022/01/10 07:37:04;;;;;;;31.15;27.85;;;;;;;-1.44;100.00;101923.78;5223766;28;20477;-63
2022/01/10 07:39:35;;;;;;;35.53;26.65;;;;;;;-1.40;100.00;101925.16;5224786;28;20021;-65
2022/01/10 07:42:05;;;;;;;33.22;29.95;;;;;;;-1.36;100.00;101936.28;5223172;28;20057;-65
2022/01/10 07:44:36;;;;;;;32.25;26.35;;;;;;;-1.34;100.00;101929.00;5227867;28;20016;-65
2022/01/10 07:47:08;;;;;;;32.65;28.20;;;;;;;-1.38;100.00;101928.47;5243544;28;20500;-65
2022/01/10 07:49:38;;;;;;;35.58;32.35;;;;;;;-1.27;100.00;101950.44;5244292;28;20031;-63
2022/01/10 07:52:09;;;;;;;32.08;29.02;;;;;;;-1.29;100.00;101953.25;5243951;28;20123;-64
2022/01/10 07:54:39;;;;;;;37.80;28.58;;;;;;;-1.29;100.00;101966.50;5234253;28;20032;-64
2022/01/10 07:57:10;;;;;;;34.28;30.95;;;;;;;-1.47;100.00;101944.47;5223268;28;20029;-65
2022/01/10 07:59:40;;;;;;;38.08;34.08;;;;;;;-1.28;100.00;101975.28;5223392;28;20405;-65
2022/01/10 08:02:11;;;;;;;49.83;44.97;;;;;;;-1.25;100.00;101975.81;5223544;28;20024;-65
2022/01/10 08:04:41;;;;;;;55.55;39.55;;;;;;;-1.26;100.00;101975.97;5231608;28;20108;-65
2022/01/10 08:07:12;;;;;;;100.13;37.08;;;;;;;-1.18;100.00;101986.66;5244000;28;20056;-65
2022/01/10 08:09:42;;;;;;;58.00;36.05;;;;;;;-1.25;100.00;101973.16;5237785;28;20371;-65
2022/01/10 08:12:13;;;;;;;65.50;33.53;;;;;;;-1.23;100.00;101975.66;5223343;28;20020;-65
2022/01/10 08:14:43;;;;;;;65.50;35.65;;;;;;;-1.18;100.00;101991.94;5222423;28;20112;-64
2022/01/10 08:17:15;;;;;;;39.17;34.97;;;;;;;-1.20;100.00;101985.97;5223362;28;20113;-64
2022/01/10 08:19:45;;;;;;;47.80;32.95;;;;;;;-1.13;100.00;101998.44;5240581;28;20550;-65
2022/01/10 08:22:16;;;;;;;47.85;29.40;;;;;;;-1.08;100.00;102003.28;5243952;28;20040;-65
2022/01/10 08:24:47;;;;;;;35.72;32.17;;;;;;;-1.05;100.00;102006.47;5243445;28;20085;-63
2022/01/10 08:27:18;;;;;;;48.35;28.85;;;;;;;-0.98;100.00;102022.59;5243902;28;20078;-65
2022/01/10 08:29:48;;;;;;;37.33;33.58;;;;;;;-0.91;100.00;102025.50;5243659;28;20025;-64
2022/01/10 08:32:19;;;;;;;64.38;33.70;;;;;;;-1.00;100.00;102008.66;5243922;28;20476;-64
2022/01/10 08:34:50;;;;;;;43.78;31.80;;;;;;;-0.84;100.00;102027.34;5244862;28;20026;-65
2022/01/10 08:37:21;;;;;;;36.20;29.05;;;;;;;-0.85;100.00;102027.50;5247080;28;20025;-65
2022/01/10 08:39:51;;;;;;;34.17;30.67;;;;;;;-0.79;100.00;102029.56;5247505;28;20524;-65
2022/01/10 08:42:23;;;;;;;39.65;30.33;;;;;;;-0.72;100.00;102052.66;5247543;28;20369;-65
2022/01/10 08:44:54;;;;;;;35.13;30.83;;;;;;;-0.63;100.00;102048.28;5232449;28;20104;-65
2022/01/10 08:47:26;;;;;;;35.63;29.23;;;;;;;-0.68;100.00;102051.38;5228246;28;20025;-65
2022/01/10 08:49:57;;;;;;;32.85;29.35;;;;;;;-0.63;100.00;102061.53;5226785;28;20017;-65
2022/01/10 08:52:27;;;;;;;35.88;32.10;;;;;;;-0.59;100.00;102070.84;5226724;28;20032;-65
2022/01/10 08:54:58;;;;;;;32.58;26.92;;;;;;;-0.55;100.00;102085.44;5226363;28;20078;-65
2022/01/10 08:57:28;;;;;;;31.67;28.63;;;;;;;-0.51;100.00;102097.44;5227197;28;20029;-63
2022/01/10 08:59:59;;;;;;;34.55;29.40;;;;;;;-0.68;100.00;102064.63;5231400;28;20112;-64
2022/01/10 09:02:29;;;;;;;28.95;26.02;;;;;;;-0.53;100.00;102091.44;5230524;28;20032;-65
2022/01/10 09:04:59;;;;;;;36.42;29.33;;;;;;;-0.46;100.00;102099.63;5228999;28;20025;-65
2022/01/10 09:07:30;;;;;;;33.97;29.73;;;;;;;-0.51;100.00;102101.91;5229305;28;20049;-65
2022/01/10 09:10:01;;;;;;;39.63;28.23;;;;;;;-0.52;100.00;102089.63;5229253;28;20075;-65
2022/01/10 09:12:31;;;;;;;35.53;29.63;;;;;;;-0.39;100.00;102111.31;5229106;28;20544;-64
2022/01/10 09:15:03;;;;;;;39.08;27.73;;;;;;;-0.33;100.00;102109.88;5229434;28;20395;-65
2022/01/10 09:17:33;;;;;;;32.78;27.80;;;;;;;-0.39;100.00;102100.69;5230329;28;20025;-65
2022/01/10 09:20:04;;;;;;;30.85;27.98;;;;;;;-0.25;100.00;102118.69;5228533;28;20051;-64
2022/01/10 09:22:35;;;;;;;29.10;25.80;;;;;;;-0.25;100.00;102118.69;5229569;28;20118;-65
2022/01/10 09:27:38;;;;;;;41.63;26.75;;;;;;;-0.24;100.00;102128.31;5237346;28;20051;-62
2022/01/10 09:30:11;;;;;;;37.03;27.58;;;;;;;-0.18;100.00;102135.69;5246926;28;20126;-60
2022/01/10 09:32:41;;;;;;;34.00;27.27;;;;;;;-0.12;100.00;102139.53;5226702;28;20040;-60
2022/01/10 09:35:12;;;;;;;42.63;28.40;;;;;;;-0.10;100.00;102143.72;5226184;28;20025;-60
2022/01/10 09:37:43;;;;;;;33.25;23.13;;;;;;;-0.05;100.00;102144.09;5226357;28;20071;-63
2022/01/10 09:40:14;;;;;;;27.30;24.40;;;;;;;-0.07;100.00;102148.72;5225938;28;20021;-61
2022/01/10 09:42:46;;;;;;;28.38;25.25;;;;;;;-0.04;100.00;102147.59;5226202;28;20032;-60
2022/01/10 09:45:16;;;;;;;26.58;23.73;;;;;;;0.05;100.00;102151.94;5208207;28;20021;-59
2022/01/10 09:47:47;;;;;;;26.65;23.92;;;;;;;0.16;100.00;102150.84;5205544;28;20025;-59
2022/01/10 09:50:18;;;;;;;28.20;24.05;;;;;;;0.21;100.00;102153.88;5205856;28;20037;-60
2022/01/10 09:52:50;;;;;;;26.88;24.33;;;;;;;0.26;100.00;102155.09;5205485;28;20057;-59
2022/01/10 09:55:20;;;;;;;28.02;25.20;;;;;;;0.29;100.00;102168.03;5205148;28;20028;-59
2022/01/10 09:57:52;;;;;;;29.58;26.42;;;;;;;0.32;100.00;102180.16;5205454;28;20037;-61
2022/01/10 10:00:23;;;;;;;26.50;23.35;;;;;;;0.39;100.00;102189.19;5221834;28;20028;-61
2022/01/10 10:02:53;;;;;;;32.97;25.40;;;;;;;0.47;100.00;102197.22;5226340;28;20183;-60
2022/01/10 10:05:24;;;;;;;29.40;26.35;;;;;;;0.47;100.00;102197.22;5226332;28;20036;-61
2022/01/10 10:07:54;;;;;;;28.77;25.27;;;;;;;0.46;100.00;102195.56;5226318;28;20059;-64
2022/01/10 10:10:27;;;;;;;26.77;24.10;;;;;;;0.44;100.00;102194.03;5225820;28;20496;-62
2022/01/10 10:12:58;;;;;;;30.92;23.77;;;;;;;0.50;100.00;102201.41;5225656;28;20437;-61
2022/01/10 10:15:32;;;;;;;27.77;24.52;;;;;;;0.58;100.00;102209.38;5225481;28;20035;-63
2022/01/10 10:18:08;;;;;;;29.13;26.02;;;;;;;0.64;100.00;102211.44;5225634;28;20032;-63
2022/01/10 10:20:41;;;;;;;32.65;25.63;;;;;;;0.64;100.00;102212.25;5225410;28;20094;-58
2022/01/10 10:23:15;;;;;;;23.42;19.98;;;;;;;0.73;100.00;102226.44;5225326;28;20021;-61
2022/01/10 10:25:49;;;;;;;28.58;25.65;;;;;;;0.86;100.00;102221.53;5225151;28;20071;-59
2022/01/10 10:28:21;;;;;;;26.45;23.98;;;;;;;1.00;100.00;102236.03;5225402;28;20027;-59
2022/01/10 10:30:57;;;;;;;26.85;24.33;;;;;;;1.12;100.00;102233.94;5225213;28;20051;-63
2022/01/10 10:33:28;;;;;;;25.73;22.88;;;;;;;1.05;100.00;102224.94;5225073;28;20543;-61
2022/01/10 10:36:07;;;;;;;25.52;23.38;;;;;;;1.12;100.00;102237.44;5224492;28;20116;-59
2022/01/10 10:38:38;;;;;;;27.95;23.88;;;;;;;1.15;100.00;102245.09;5224822;28;20024;-63
2022/01/10 10:41:08;;;;;;;23.13;20.88;;;;;;;1.28;100.00;102237.47;5224206;28;20040;-60
2022/01/10 10:43:41;;;;;;;25.55;21.70;;;;;;;1.39;100.00;102248.84;5224764;28;20024;-60
2022/01/10 10:46:16;;;;;;;23.65;21.30;;;;;;;1.46;100.00;102233.88;5224589;28;20044;-61
2022/01/10 10:48:50;;;;;;;29.15;23.92;;;;;;;1.59;100.00;102248.38;5224758;28;20029;-61
2022/01/10 10:51:20;;;;;;;27.73;23.25;;;;;;;1.62;100.00;102252.56;5224508;28;20389;-60
2022/01/10 10:53:50;;;;;;;24.38;22.02;;;;;;;1.63;100.00;102256.88;5224354;28;20025;-63
2022/01/10 10:56:21;;;;;;;24.48;22.08;;;;;;;1.72;100.00;102258.56;5224873;28;20036;-60
2022/01/10 10:58:52;;;;;;;25.65;22.88;;;;;;;1.69;100.00;102258.91;5226109;28;20147;-59
2022/01/10 11:01:23;;;;;;;29.23;25.05;;;;;;;1.75;100.00;102260.06;5224565;28;20037;-61
2022/01/10 11:03:54;;;;;;;35.80;23.38;;;;;;;1.72;100.00;102263.06;5223626;28;20029;-60
2022/01/10 11:06:27;;;;;;;21.60;19.38;;;;;;;1.64;100.00;102266.53;5224892;28;20044;-63
2022/01/10 11:08:59;;;;;;;22.77;20.40;;;;;;;1.28;100.00;102277.41;5223973;28;20515;-60
2022/01/10 11:11:30;;;;;;;33.08;19.85;;;;;;;1.09;100.00;102269.69;5224518;28;20021;-62
2022/01/10 11:14:02;;;;;;;20.35;18.75;;;;;;;1.04;100.00;102276.47;5224404;28;20025;-60
2022/01/10 11:16:36;;;;;;;42.78;18.10;;;;;;;0.97;100.00;102276.25;5224836;28;20036;-61
2022/01/10 11:19:27;;;;;;;21.42;19.42;;;;;;;1.11;100.00;102281.00;5225174;28;20029;-63
2022/01/10 11:22:05;;;;;;;20.85;19.17;;;;;;;1.24;100.00;102284.03;5225191;28;20091;-61
2022/01/10 11:24:50;;;;;;;24.88;18.25;;;;;;;1.37;100.00;102288.09;5224465;28;20063;-60
2022/01/10 11:27:28;;;;;;;29.42;21.45;;;;;;;1.35;100.00;102286.41;5224413;28;20072;-60
2022/01/10 11:30:02;;;;;;;24.42;20.75;;;;;;;1.43;100.00;102304.25;5225535;28;20024;-63
2022/01/10 11:33:01;;;;;;;20.48;17.58;;;;;;;1.44;100.00;102302.44;5226226;28;20029;-60
2022/01/10 11:35:36;;;;;;;31.60;23.58;;;;;;;1.47;100.00;102310.06;5226234;28;20033;-61